sensor_id;sensor_type;location;lat;lon;timestamp;P1;durP1;ratioP1;P2;durP2;ratioP2
67363;SDS011;54250;45.572;38.086;2022-11-12T00:02:16;13.95;;;5.03;;
67363;SDS011;54250;45.572;38.086;2022-11-12T00:05:01;9.40;;;4.30;;
67363;SDS011;54250;45.572;38.086;2022-11-12T00:07:45;8.75;;;3.95;;
67363;SDS011;54250;45.572;38.086;2022-11-12T00:10:30;6.72;;;4.05;;
67363;SDS011;54250;45.572;38.086;2022-11-12T00:13:15;8.75;;;4.18;;
67363;SDS011;54250;45.572;38.086;2022-11-12T00:16:00;5.82;;;3.35;;
67363;SDS011;54250;45.572;38.086;2022-11-12T00:18:44;5.35;;;3.90;;
67363;SDS011;54250;45.572;38.086;2022-11-12T00:21:30;6.72;;;3.50;;
67363;SDS011;54250;45.572;38.086;2022-11-12T00:24:15;5.95;;;3.72;;
67363;SDS011;54250;45.572;38.086;2022-11-12T00:26:59;15.00;;;3.58;;
67363;SDS011;54250;45.572;38.086;2022-11-12T00:29:44;9.00;;;4.40;;
67363;SDS011;54250;45.572;38.086;2022-11-12T00:32:28;5.88;;;3.33;;
67363;SDS011;54250;45.572;38.086;2022-11-12T00:35:13;6.03;;;4.00;;
67363;SDS011;54250;45.572;38.086;2022-11-12T00:37:57;6.88;;;3.85;;
67363;SDS011;54250;45.572;38.086;2022-11-12T00:40:43;5.85;;;3.60;;
67363;SDS011;54250;45.572;38.086;2022-11-12T00:43:27;6.53;;;3.75;;
67363;SDS011;54250;45.572;38.086;2022-11-12T00:46:12;9.93;;;3.58;;
67363;SDS011;54250;45.572;38.086;2022-11-12T00:48:56;6.40;;;3.75;;
67363;SDS011;54250;45.572;38.086;2022-11-12T00:51:41;6.65;;;3.50;;
67363;SDS011;54250;45.572;38.086;2022-11-12T00:54:26;7.40;;;3.63;;
67363;SDS011;54250;45.572;38.086;2022-11-12T00:57:11;5.13;;;3.35;;
67363;SDS011;54250;45.572;38.086;2022-11-12T00:59:55;7.80;;;3.97;;
67363;SDS011;54250;45.572;38.086;2022-11-12T01:02:39;10.57;;;4.30;;
67363;SDS011;54250;45.572;38.086;2022-11-12T01:05:24;10.80;;;4.97;;
67363;SDS011;54250;45.572;38.086;2022-11-12T01:08:08;11.30;;;5.15;;
67363;SDS011;54250;45.572;38.086;2022-11-12T01:10:53;10.38;;;4.60;;
67363;SDS011;54250;45.572;38.086;2022-11-12T01:13:38;25.05;;;6.18;;
67363;SDS011;54250;45.572;38.086;2022-11-12T01:16:26;9.57;;;4.45;;
67363;SDS011;54250;45.572;38.086;2022-11-12T01:19:13;12.63;;;3.63;;
67363;SDS011;54250;45.572;38.086;2022-11-12T01:21:57;12.73;;;4.93;;
67363;SDS011;54250;45.572;38.086;2022-11-12T01:24:42;6.38;;;3.88;;
67363;SDS011;54250;45.572;38.086;2022-11-12T01:27:26;7.53;;;3.67;;
67363;SDS011;54250;45.572;38.086;2022-11-12T01:30:11;7.18;;;4.18;;
67363;SDS011;54250;45.572;38.086;2022-11-12T01:32:55;15.73;;;3.65;;
67363;SDS011;54250;45.572;38.086;2022-11-12T01:35:40;10.00;;;4.93;;
67363;SDS011;54250;45.572;38.086;2022-11-12T01:38:24;11.40;;;3.55;;
67363;SDS011;54250;45.572;38.086;2022-11-12T01:41:10;13.07;;;3.20;;
67363;SDS011;54250;45.572;38.086;2022-11-12T01:52:49;5.10;;;3.38;;
67363;SDS011;54250;45.572;38.086;2022-11-12T01:55:37;6.40;;;3.50;;
67363;SDS011;54250;45.572;38.086;2022-11-12T01:58:22;5.95;;;3.22;;
67363;SDS011;54250;45.572;38.086;2022-11-12T02:01:09;19.08;;;3.97;;
67363;SDS011;54250;45.572;38.086;2022-11-12T02:03:54;9.80;;;3.60;;
67363;SDS011;54250;45.572;38.086;2022-11-12T02:06:39;6.90;;;3.55;;
67363;SDS011;54250;45.572;38.086;2022-11-12T02:09:26;7.53;;;3.92;;
67363;SDS011;54250;45.572;38.086;2022-11-12T02:12:12;4.32;;;2.60;;
67363;SDS011;54250;45.572;38.086;2022-11-12T02:15:17;10.20;;;4.43;;
67363;SDS011;54250;45.572;38.086;2022-11-12T02:18:01;14.98;;;3.58;;
67363;SDS011;54250;45.572;38.086;2022-11-12T02:20:51;4.82;;;3.03;;
67363;SDS011;54250;45.572;38.086;2022-11-12T02:23:40;3.10;;;2.28;;
67363;SDS011;54250;45.572;38.086;2022-11-12T02:26:24;6.60;;;3.47;;
67363;SDS011;54250;45.572;38.086;2022-11-12T02:29:11;6.65;;;3.80;;
67363;SDS011;54250;45.572;38.086;2022-11-12T02:31:56;5.47;;;2.72;;
67363;SDS011;54250;45.572;38.086;2022-11-12T02:34:40;13.25;;;3.72;;
67363;SDS011;54250;45.572;38.086;2022-11-12T02:37:24;12.10;;;2.92;;
67363;SDS011;54250;45.572;38.086;2022-11-12T02:40:09;6.03;;;4.22;;
67363;SDS011;54250;45.572;38.086;2022-11-12T02:42:53;7.72;;;3.80;;
67363;SDS011;54250;45.572;38.086;2022-11-12T02:45:38;7.07;;;4.50;;
67363;SDS011;54250;45.572;38.086;2022-11-12T02:48:22;10.65;;;4.85;;
67363;SDS011;54250;45.572;38.086;2022-11-12T02:51:07;4.65;;;3.25;;
67363;SDS011;54250;45.572;38.086;2022-11-12T02:53:51;10.32;;;3.83;;
67363;SDS011;54250;45.572;38.086;2022-11-12T02:56:36;6.13;;;3.08;;
67363;SDS011;54250;45.572;38.086;2022-11-12T02:59:20;8.82;;;4.28;;
67363;SDS011;54250;45.572;38.086;2022-11-12T03:02:05;6.57;;;3.58;;
67363;SDS011;54250;45.572;38.086;2022-11-12T03:04:49;11.02;;;4.15;;
67363;SDS011;54250;45.572;38.086;2022-11-12T03:07:34;5.78;;;3.22;;
67363;SDS011;54250;45.572;38.086;2022-11-12T03:10:18;5.53;;;3.55;;
67363;SDS011;54250;45.572;38.086;2022-11-12T03:13:02;9.48;;;4.88;;
67363;SDS011;54250;45.572;38.086;2022-11-12T03:15:48;5.13;;;3.42;;
67363;SDS011;54250;45.572;38.086;2022-11-12T03:18:32;9.25;;;4.18;;
67363;SDS011;54250;45.572;38.086;2022-11-12T03:21:17;16.23;;;9.80;;
67363;SDS011;54250;45.572;38.086;2022-11-12T03:24:02;17.58;;;10.13;;
67363;SDS011;54250;45.572;38.086;2022-11-12T03:26:46;18.83;;;5.13;;
67363;SDS011;54250;45.572;38.086;2022-11-12T03:29:30;9.60;;;4.78;;
67363;SDS011;54250;45.572;38.086;2022-11-12T03:32:15;7.07;;;4.25;;
67363;SDS011;54250;45.572;38.086;2022-11-12T03:34:59;25.65;;;4.75;;
67363;SDS011;54250;45.572;38.086;2022-11-12T03:37:44;8.23;;;4.13;;
67363;SDS011;54250;45.572;38.086;2022-11-12T03:40:28;8.98;;;4.18;;
67363;SDS011;54250;45.572;38.086;2022-11-12T03:43:14;11.23;;;4.85;;
67363;SDS011;54250;45.572;38.086;2022-11-12T03:45:59;9.13;;;4.93;;
67363;SDS011;54250;45.572;38.086;2022-11-12T03:48:44;7.70;;;4.25;;
67363;SDS011;54250;45.572;38.086;2022-11-12T03:51:29;9.15;;;4.05;;
67363;SDS011;54250;45.572;38.086;2022-11-12T03:54:13;7.93;;;3.40;;
67363;SDS011;54250;45.572;38.086;2022-11-12T03:56:58;9.80;;;4.57;;
67363;SDS011;54250;45.572;38.086;2022-11-12T03:59:42;9.05;;;3.55;;
67363;SDS011;54250;45.572;38.086;2022-11-12T04:02:27;5.82;;;3.17;;
67363;SDS011;54250;45.572;38.086;2022-11-12T04:05:13;7.20;;;3.90;;
67363;SDS011;54250;45.572;38.086;2022-11-12T04:08:17;5.03;;;3.60;;
67363;SDS011;54250;45.572;38.086;2022-11-12T04:11:19;7.57;;;3.47;;
67363;SDS011;54250;45.572;38.086;2022-11-12T04:14:03;8.73;;;3.95;;
67363;SDS011;54250;45.572;38.086;2022-11-12T04:16:48;4.93;;;3.15;;
67363;SDS011;54250;45.572;38.086;2022-11-12T04:19:51;5.65;;;3.47;;
67363;SDS011;54250;45.572;38.086;2022-11-12T04:22:54;8.00;;;3.28;;
67363;SDS011;54250;45.572;38.086;2022-11-12T04:25:38;4.70;;;3.70;;
67363;SDS011;54250;45.572;38.086;2022-11-12T04:28:41;9.10;;;3.60;;
67363;SDS011;54250;45.572;38.086;2022-11-12T04:34:30;3.87;;;2.47;;
67363;SDS011;54250;45.572;38.086;2022-11-12T04:37:14;4.90;;;2.45;;
67363;SDS011;54250;45.572;38.086;2022-11-12T04:39:59;4.22;;;2.45;;
67363;SDS011;54250;45.572;38.086;2022-11-12T04:43:04;9.02;;;3.42;;
67363;SDS011;54250;45.572;38.086;2022-11-12T04:46:10;4.05;;;2.85;;
67363;SDS011;54250;45.572;38.086;2022-11-12T04:48:54;6.47;;;4.28;;
67363;SDS011;54250;45.572;38.086;2022-11-12T04:51:39;23.35;;;9.18;;
67363;SDS011;54250;45.572;38.086;2022-11-12T04:54:42;16.02;;;6.95;;
67363;SDS011;54250;45.572;38.086;2022-11-12T04:57:27;11.63;;;5.35;;
67363;SDS011;54250;45.572;38.086;2022-11-12T05:00:11;6.55;;;4.00;;
67363;SDS011;54250;45.572;38.086;2022-11-12T05:02:56;8.30;;;4.22;;
67363;SDS011;54250;45.572;38.086;2022-11-12T05:05:40;7.68;;;3.63;;
67363;SDS011;54250;45.572;38.086;2022-11-12T05:08:25;16.30;;;5.13;;
67363;SDS011;54250;45.572;38.086;2022-11-12T05:11:10;10.73;;;4.70;;
67363;SDS011;54250;45.572;38.086;2022-11-12T05:13:54;11.52;;;4.13;;
67363;SDS011;54250;45.572;38.086;2022-11-12T05:16:39;11.68;;;3.97;;
67363;SDS011;54250;45.572;38.086;2022-11-12T05:19:24;13.00;;;5.07;;
67363;SDS011;54250;45.572;38.086;2022-11-12T05:22:09;8.68;;;4.60;;
67363;SDS011;54250;45.572;38.086;2022-11-12T05:24:54;8.82;;;4.25;;
67363;SDS011;54250;45.572;38.086;2022-11-12T05:27:38;5.70;;;3.53;;
67363;SDS011;54250;45.572;38.086;2022-11-12T05:30:22;13.90;;;5.22;;
67363;SDS011;54250;45.572;38.086;2022-11-12T05:33:07;5.90;;;3.10;;
67363;SDS011;54250;45.572;38.086;2022-11-12T05:35:54;6.35;;;3.75;;
67363;SDS011;54250;45.572;38.086;2022-11-12T05:38:39;9.40;;;3.88;;
67363;SDS011;54250;45.572;38.086;2022-11-12T05:41:24;6.85;;;3.78;;
67363;SDS011;54250;45.572;38.086;2022-11-12T05:44:09;7.00;;;3.92;;
67363;SDS011;54250;45.572;38.086;2022-11-12T05:46:54;5.38;;;3.67;;
67363;SDS011;54250;45.572;38.086;2022-11-12T05:49:38;8.80;;;4.53;;
67363;SDS011;54250;45.572;38.086;2022-11-12T05:52:23;6.35;;;3.30;;
67363;SDS011;54250;45.572;38.086;2022-11-12T05:55:07;10.65;;;3.92;;
67363;SDS011;54250;45.572;38.086;2022-11-12T05:57:52;7.68;;;4.07;;
67363;SDS011;54250;45.572;38.086;2022-11-12T06:00:37;9.18;;;4.40;;
67363;SDS011;54250;45.572;38.086;2022-11-12T06:03:24;5.93;;;3.67;;
67363;SDS011;54250;45.572;38.086;2022-11-12T06:06:09;8.65;;;4.55;;
67363;SDS011;54250;45.572;38.086;2022-11-12T06:08:53;24.60;;;4.85;;
67363;SDS011;54250;45.572;38.086;2022-11-12T06:11:38;8.50;;;4.95;;
67363;SDS011;54250;45.572;38.086;2022-11-12T06:14:23;7.07;;;4.30;;
67363;SDS011;54250;45.572;38.086;2022-11-12T06:17:07;10.05;;;5.05;;
67363;SDS011;54250;45.572;38.086;2022-11-12T06:19:51;12.15;;;5.07;;
67363;SDS011;54250;45.572;38.086;2022-11-12T06:22:36;11.05;;;5.00;;
67363;SDS011;54250;45.572;38.086;2022-11-12T06:25:21;8.40;;;4.00;;
67363;SDS011;54250;45.572;38.086;2022-11-12T06:28:06;6.40;;;3.75;;
67363;SDS011;54250;45.572;38.086;2022-11-12T06:30:50;9.05;;;5.35;;
67363;SDS011;54250;45.572;38.086;2022-11-12T06:33:34;5.63;;;4.10;;
67363;SDS011;54250;45.572;38.086;2022-11-12T06:36:19;11.52;;;4.80;;
67363;SDS011;54250;45.572;38.086;2022-11-12T06:39:04;10.00;;;4.22;;
67363;SDS011;54250;45.572;38.086;2022-11-12T06:41:50;8.75;;;4.65;;
67363;SDS011;54250;45.572;38.086;2022-11-12T06:44:34;6.43;;;3.28;;
67363;SDS011;54250;45.572;38.086;2022-11-12T06:47:18;7.90;;;4.32;;
67363;SDS011;54250;45.572;38.086;2022-11-12T06:50:03;7.00;;;3.60;;
67363;SDS011;54250;45.572;38.086;2022-11-12T06:52:48;8.02;;;3.20;;
67363;SDS011;54250;45.572;38.086;2022-11-12T06:55:32;9.57;;;3.92;;
67363;SDS011;54250;45.572;38.086;2022-11-12T06:58:17;5.57;;;3.75;;
67363;SDS011;54250;45.572;38.086;2022-11-12T07:01:06;12.35;;;3.90;;
67363;SDS011;54250;45.572;38.086;2022-11-12T07:03:52;9.23;;;4.47;;
67363;SDS011;54250;45.572;38.086;2022-11-12T07:06:37;10.68;;;4.10;;
67363;SDS011;54250;45.572;38.086;2022-11-12T07:09:21;8.20;;;4.03;;
67363;SDS011;54250;45.572;38.086;2022-11-12T07:12:06;11.38;;;4.13;;
67363;SDS011;54250;45.572;38.086;2022-11-12T07:14:51;6.65;;;3.55;;
67363;SDS011;54250;45.572;38.086;2022-11-12T07:17:36;7.40;;;4.25;;
67363;SDS011;54250;45.572;38.086;2022-11-12T07:20:21;8.48;;;3.80;;
67363;SDS011;54250;45.572;38.086;2022-11-12T07:23:05;9.82;;;4.35;;
67363;SDS011;54250;45.572;38.086;2022-11-12T07:25:57;12.85;;;3.80;;
67363;SDS011;54250;45.572;38.086;2022-11-12T07:28:43;5.35;;;3.05;;
67363;SDS011;54250;45.572;38.086;2022-11-12T07:31:28;10.95;;;3.70;;
67363;SDS011;54250;45.572;38.086;2022-11-12T07:34:12;5.15;;;3.25;;
67363;SDS011;54250;45.572;38.086;2022-11-12T07:36:57;7.32;;;3.03;;
67363;SDS011;54250;45.572;38.086;2022-11-12T07:39:41;8.57;;;4.00;;
67363;SDS011;54250;45.572;38.086;2022-11-12T07:42:25;18.45;;;4.90;;
67363;SDS011;54250;45.572;38.086;2022-11-12T07:45:10;13.68;;;4.47;;
67363;SDS011;54250;45.572;38.086;2022-11-12T07:47:57;8.30;;;3.47;;
67363;SDS011;54250;45.572;38.086;2022-11-12T07:50:41;5.53;;;3.03;;
67363;SDS011;54250;45.572;38.086;2022-11-12T07:53:26;5.50;;;2.58;;
67363;SDS011;54250;45.572;38.086;2022-11-12T07:56:12;4.95;;;3.65;;
67363;SDS011;54250;45.572;38.086;2022-11-12T07:58:58;4.60;;;2.50;;
67363;SDS011;54250;45.572;38.086;2022-11-12T08:01:43;6.50;;;3.28;;
67363;SDS011;54250;45.572;38.086;2022-11-12T08:04:28;5.10;;;3.42;;
67363;SDS011;54250;45.572;38.086;2022-11-12T08:07:12;3.53;;;2.22;;
67363;SDS011;54250;45.572;38.086;2022-11-12T08:09:57;8.80;;;3.28;;
67363;SDS011;54250;45.572;38.086;2022-11-12T08:12:41;7.15;;;4.18;;
67363;SDS011;54250;45.572;38.086;2022-11-12T08:15:25;16.15;;;3.13;;
67363;SDS011;54250;45.572;38.086;2022-11-12T08:18:10;9.75;;;3.17;;
67363;SDS011;54250;45.572;38.086;2022-11-12T08:20:58;8.55;;;4.30;;
67363;SDS011;54250;45.572;38.086;2022-11-12T08:23:46;7.03;;;2.63;;
67363;SDS011;54250;45.572;38.086;2022-11-12T08:26:31;6.47;;;3.05;;
67363;SDS011;54250;45.572;38.086;2022-11-12T08:29:15;8.25;;;3.70;;
67363;SDS011;54250;45.572;38.086;2022-11-12T08:32:00;4.78;;;2.97;;
67363;SDS011;54250;45.572;38.086;2022-11-12T08:34:44;6.03;;;3.75;;
67363;SDS011;54250;45.572;38.086;2022-11-12T08:37:29;7.38;;;3.80;;
67363;SDS011;54250;45.572;38.086;2022-11-12T08:40:13;3.80;;;2.55;;
67363;SDS011;54250;45.572;38.086;2022-11-12T08:42:58;7.60;;;3.22;;
67363;SDS011;54250;45.572;38.086;2022-11-12T08:45:44;5.32;;;3.35;;
67363;SDS011;54250;45.572;38.086;2022-11-12T08:48:29;7.53;;;4.13;;
67363;SDS011;54250;45.572;38.086;2022-11-12T08:51:14;7.88;;;3.70;;
67363;SDS011;54250;45.572;38.086;2022-11-12T08:53:58;12.63;;;4.05;;
67363;SDS011;54250;45.572;38.086;2022-11-12T08:56:42;6.57;;;3.10;;
67363;SDS011;54250;45.572;38.086;2022-11-12T08:59:27;4.68;;;3.45;;
67363;SDS011;54250;45.572;38.086;2022-11-12T09:02:11;7.75;;;3.35;;
67363;SDS011;54250;45.572;38.086;2022-11-12T09:04:57;5.85;;;2.90;;
67363;SDS011;54250;45.572;38.086;2022-11-12T09:07:41;5.22;;;3.10;;
67363;SDS011;54250;45.572;38.086;2022-11-12T09:10:26;3.28;;;2.33;;
67363;SDS011;54250;45.572;38.086;2022-11-12T09:13:11;16.42;;;3.22;;
67363;SDS011;54250;45.572;38.086;2022-11-12T09:16:06;2.35;;;1.88;;
67363;SDS011;54250;45.572;38.086;2022-11-12T09:18:50;11.27;;;2.60;;
67363;SDS011;54250;45.572;38.086;2022-11-12T09:21:35;5.13;;;3.63;;
67363;SDS011;54250;45.572;38.086;2022-11-12T09:24:19;6.07;;;3.08;;
67363;SDS011;54250;45.572;38.086;2022-11-12T09:27:04;6.38;;;2.80;;
67363;SDS011;54250;45.572;38.086;2022-11-12T09:29:48;5.72;;;3.10;;
67363;SDS011;54250;45.572;38.086;2022-11-12T09:32:33;9.80;;;3.25;;
67363;SDS011;54250;45.572;38.086;2022-11-12T09:35:17;3.72;;;2.95;;
67363;SDS011;54250;45.572;38.086;2022-11-12T09:38:01;9.05;;;3.83;;
67363;SDS011;54250;45.572;38.086;2022-11-12T09:44:10;13.98;;;3.92;;
67363;SDS011;54250;45.572;38.086;2022-11-12T09:47:24;5.60;;;2.47;;
67363;SDS011;54250;45.572;38.086;2022-11-12T09:53:10;8.10;;;3.75;;
67363;SDS011;54250;45.572;38.086;2022-11-12T09:56:18;6.78;;;3.88;;
67363;SDS011;54250;45.572;38.086;2022-11-12T09:59:08;4.88;;;2.22;;
67363;SDS011;54250;45.572;38.086;2022-11-12T10:04:55;13.18;;;6.68;;
67363;SDS011;54250;45.572;38.086;2022-11-12T10:07:57;5.50;;;2.88;;
67363;SDS011;54250;45.572;38.086;2022-11-12T10:10:58;4.55;;;2.28;;
67363;SDS011;54250;45.572;38.086;2022-11-12T10:13:57;5.65;;;2.45;;
67363;SDS011;54250;45.572;38.086;2022-11-12T10:19:41;6.90;;;2.90;;
67363;SDS011;54250;45.572;38.086;2022-11-12T10:25:50;6.03;;;2.95;;
67363;SDS011;54250;45.572;38.086;2022-11-12T10:31:29;4.63;;;2.75;;
67363;SDS011;54250;45.572;38.086;2022-11-12T10:34:16;9.45;;;3.33;;
67363;SDS011;54250;45.572;38.086;2022-11-12T10:43:05;8.77;;;3.10;;
67363;SDS011;54250;45.572;38.086;2022-11-12T10:57:31;15.43;;;3.08;;
67363;SDS011;54250;45.572;38.086;2022-11-12T11:00:17;17.13;;;8.45;;
67363;SDS011;54250;45.572;38.086;2022-11-12T11:06:27;6.30;;;3.40;;
67363;SDS011;54250;45.572;38.086;2022-11-12T11:11:57;16.60;;;2.83;;
67363;SDS011;54250;45.572;38.086;2022-11-12T11:14:41;5.82;;;3.35;;
67363;SDS011;54250;45.572;38.086;2022-11-12T11:17:27;5.95;;;3.30;;
67363;SDS011;54250;45.572;38.086;2022-11-12T11:23:19;6.95;;;3.25;;
67363;SDS011;54250;45.572;38.086;2022-11-12T11:26:58;3.97;;;2.53;;
67363;SDS011;54250;45.572;38.086;2022-11-12T11:29:53;5.10;;;2.63;;
67363;SDS011;54250;45.572;38.086;2022-11-12T11:35:54;7.10;;;3.88;;
67363;SDS011;54250;45.572;38.086;2022-11-12T11:38:51;5.22;;;2.78;;
67363;SDS011;54250;45.572;38.086;2022-11-12T11:44:42;6.30;;;2.58;;
67363;SDS011;54250;45.572;38.086;2022-11-12T11:54:28;10.10;;;2.38;;
67363;SDS011;54250;45.572;38.086;2022-11-12T11:57:28;4.45;;;2.80;;
67363;SDS011;54250;45.572;38.086;2022-11-12T12:00:27;4.32;;;2.80;;
67363;SDS011;54250;45.572;38.086;2022-11-12T12:03:44;5.78;;;3.80;;
67363;SDS011;54250;45.572;38.086;2022-11-12T12:06:56;9.35;;;3.58;;
67363;SDS011;54250;45.572;38.086;2022-11-12T12:09:59;5.35;;;3.35;;
67363;SDS011;54250;45.572;38.086;2022-11-12T12:15:55;15.88;;;10.48;;
67363;SDS011;54250;45.572;38.086;2022-11-12T12:19:00;10.00;;;3.75;;
67363;SDS011;54250;45.572;38.086;2022-11-12T12:21:54;9.75;;;3.17;;
67363;SDS011;54250;45.572;38.086;2022-11-12T12:27:36;5.05;;;2.90;;
67363;SDS011;54250;45.572;38.086;2022-11-12T12:30:25;6.97;;;3.08;;
67363;SDS011;54250;45.572;38.086;2022-11-12T12:36:36;5.88;;;3.30;;
67363;SDS011;54250;45.572;38.086;2022-11-12T12:42:21;5.20;;;2.67;;
67363;SDS011;54250;45.572;38.086;2022-11-12T12:45:33;7.50;;;3.63;;
67363;SDS011;54250;45.572;38.086;2022-11-12T12:48:30;6.18;;;3.35;;
67363;SDS011;54250;45.572;38.086;2022-11-12T12:51:17;8.70;;;3.20;;
67363;SDS011;54250;45.572;38.086;2022-11-12T12:54:02;7.53;;;3.17;;
67363;SDS011;54250;45.572;38.086;2022-11-12T12:56:47;6.25;;;2.67;;
67363;SDS011;54250;45.572;38.086;2022-11-12T12:59:32;6.88;;;3.47;;
67363;SDS011;54250;45.572;38.086;2022-11-12T13:02:20;5.60;;;3.00;;
67363;SDS011;54250;45.572;38.086;2022-11-12T13:05:21;9.30;;;3.55;;
67363;SDS011;54250;45.572;38.086;2022-11-12T13:08:24;6.93;;;2.88;;
67363;SDS011;54250;45.572;38.086;2022-11-12T13:11:09;4.13;;;2.83;;
67363;SDS011;54250;45.572;38.086;2022-11-12T13:13:53;7.30;;;3.72;;
67363;SDS011;54250;45.572;38.086;2022-11-12T13:33:28;11.98;;;5.50;;
67363;SDS011;54250;45.572;38.086;2022-11-12T13:36:25;8.82;;;3.38;;
67363;SDS011;54250;45.572;38.086;2022-11-12T13:39:15;6.88;;;3.80;;
67363;SDS011;54250;45.572;38.086;2022-11-12T13:42:12;4.90;;;2.55;;
67363;SDS011;54250;45.572;38.086;2022-11-12T13:45:19;6.38;;;3.38;;
67363;SDS011;54250;45.572;38.086;2022-11-12T13:48:17;16.38;;;5.63;;
67363;SDS011;54250;45.572;38.086;2022-11-12T13:51:27;6.85;;;3.08;;
67363;SDS011;54250;45.572;38.086;2022-11-12T13:54:30;5.00;;;2.58;;
67363;SDS011;54250;45.572;38.086;2022-11-12T14:00:18;6.43;;;3.50;;
67363;SDS011;54250;45.572;38.086;2022-11-12T14:03:12;7.53;;;3.70;;
67363;SDS011;54250;45.572;38.086;2022-11-12T14:06:02;10.65;;;4.15;;
67363;SDS011;54250;45.572;38.086;2022-11-12T14:09:13;16.10;;;6.72;;
67363;SDS011;54250;45.572;38.086;2022-11-12T14:12:07;5.57;;;3.75;;
67363;SDS011;54250;45.572;38.086;2022-11-12T14:21:03;11.93;;;4.68;;
67363;SDS011;54250;45.572;38.086;2022-11-12T14:23:49;6.38;;;4.13;;
67363;SDS011;54250;45.572;38.086;2022-11-12T14:26:39;6.25;;;3.67;;
67363;SDS011;54250;45.572;38.086;2022-11-12T14:29:25;13.93;;;4.38;;
67363;SDS011;54250;45.572;38.086;2022-11-12T14:32:09;11.35;;;3.85;;
67363;SDS011;54250;45.572;38.086;2022-11-12T14:34:54;24.40;;;4.72;;
67363;SDS011;54250;45.572;38.086;2022-11-12T14:37:38;13.73;;;4.32;;
67363;SDS011;54250;45.572;38.086;2022-11-12T14:40:28;20.33;;;10.60;;
67363;SDS011;54250;45.572;38.086;2022-11-12T14:43:24;22.27;;;8.98;;
67363;SDS011;54250;45.572;38.086;2022-11-12T14:46:42;17.55;;;8.32;;
67363;SDS011;54250;45.572;38.086;2022-11-12T14:49:36;42.78;;;13.82;;
67363;SDS011;54250;45.572;38.086;2022-11-12T14:52:27;55.75;;;24.52;;
67363;SDS011;54250;45.572;38.086;2022-11-12T14:55:20;71.03;;;25.80;;
67363;SDS011;54250;45.572;38.086;2022-11-12T14:58:15;105.88;;;34.58;;
67363;SDS011;54250;45.572;38.086;2022-11-12T15:06:58;61.35;;;26.67;;
67363;SDS011;54250;45.572;38.086;2022-11-12T15:09:43;89.32;;;37.72;;
67363;SDS011;54250;45.572;38.086;2022-11-12T15:12:32;289.38;;;119.13;;
67363;SDS011;54250;45.572;38.086;2022-11-12T15:15:18;132.80;;;51.13;;
67363;SDS011;54250;45.572;38.086;2022-11-12T15:18:18;131.85;;;53.80;;
67363;SDS011;54250;45.572;38.086;2022-11-12T15:26:55;84.32;;;29.35;;
67363;SDS011;54250;45.572;38.086;2022-11-12T15:29:41;86.53;;;34.03;;
67363;SDS011;54250;45.572;38.086;2022-11-12T15:32:29;88.68;;;33.10;;
67363;SDS011;54250;45.572;38.086;2022-11-12T15:38:14;38.22;;;16.60;;
67363;SDS011;54250;45.572;38.086;2022-11-12T15:41:05;53.00;;;18.13;;
67363;SDS011;54250;45.572;38.086;2022-11-12T15:44:02;59.00;;;25.83;;
67363;SDS011;54250;45.572;38.086;2022-11-12T15:46:48;53.72;;;20.73;;
67363;SDS011;54250;45.572;38.086;2022-11-12T15:49:32;26.02;;;12.43;;
67363;SDS011;54250;45.572;38.086;2022-11-12T15:52:18;33.38;;;18.67;;
67363;SDS011;54250;45.572;38.086;2022-11-12T15:55:03;42.88;;;22.02;;
67363;SDS011;54250;45.572;38.086;2022-11-12T15:57:49;38.67;;;12.05;;
67363;SDS011;54250;45.572;38.086;2022-11-12T16:00:36;48.65;;;21.45;;
67363;SDS011;54250;45.572;38.086;2022-11-12T16:03:21;44.58;;;20.67;;
67363;SDS011;54250;45.572;38.086;2022-11-12T16:06:08;63.30;;;24.98;;
67363;SDS011;54250;45.572;38.086;2022-11-12T16:08:54;77.75;;;24.70;;
67363;SDS011;54250;45.572;38.086;2022-11-12T16:11:39;59.58;;;26.60;;
67363;SDS011;54250;45.572;38.086;2022-11-12T16:14:23;43.47;;;20.98;;
67363;SDS011;54250;45.572;38.086;2022-11-12T16:17:14;38.72;;;18.75;;
67363;SDS011;54250;45.572;38.086;2022-11-12T16:20:00;67.30;;;15.93;;
67363;SDS011;54250;45.572;38.086;2022-11-12T16:22:44;52.90;;;16.90;;
67363;SDS011;54250;45.572;38.086;2022-11-12T16:25:30;45.72;;;18.17;;
67363;SDS011;54250;45.572;38.086;2022-11-12T16:28:16;20.50;;;9.60;;
67363;SDS011;54250;45.572;38.086;2022-11-12T16:31:02;37.28;;;15.60;;
67363;SDS011;54250;45.572;38.086;2022-11-12T16:33:46;31.02;;;13.90;;
67363;SDS011;54250;45.572;38.086;2022-11-12T16:36:31;25.17;;;12.88;;
67363;SDS011;54250;45.572;38.086;2022-11-12T16:39:16;41.90;;;15.95;;
67363;SDS011;54250;45.572;38.086;2022-11-12T16:42:00;27.38;;;14.23;;
67363;SDS011;54250;45.572;38.086;2022-11-12T16:44:45;32.60;;;14.65;;
67363;SDS011;54250;45.572;38.086;2022-11-12T16:47:29;28.52;;;13.95;;
67363;SDS011;54250;45.572;38.086;2022-11-12T16:50:15;37.35;;;14.93;;
67363;SDS011;54250;45.572;38.086;2022-11-12T16:53:01;42.55;;;15.63;;
67363;SDS011;54250;45.572;38.086;2022-11-12T16:55:46;40.88;;;14.85;;
67363;SDS011;54250;45.572;38.086;2022-11-12T16:58:30;19.27;;;10.85;;
67363;SDS011;54250;45.572;38.086;2022-11-12T17:04:10;27.80;;;10.13;;
67363;SDS011;54250;45.572;38.086;2022-11-12T17:06:54;25.85;;;10.60;;
67363;SDS011;54250;45.572;38.086;2022-11-12T17:09:39;25.30;;;10.05;;
67363;SDS011;54250;45.572;38.086;2022-11-12T17:12:23;35.10;;;12.05;;
67363;SDS011;54250;45.572;38.086;2022-11-12T17:15:08;20.20;;;9.68;;
67363;SDS011;54250;45.572;38.086;2022-11-12T17:17:53;13.75;;;7.50;;
67363;SDS011;54250;45.572;38.086;2022-11-12T17:20:38;15.32;;;7.90;;
67363;SDS011;54250;45.572;38.086;2022-11-12T17:23:22;23.85;;;8.40;;
67363;SDS011;54250;45.572;38.086;2022-11-12T17:26:09;19.98;;;9.73;;
67363;SDS011;54250;45.572;38.086;2022-11-12T17:28:57;19.20;;;8.35;;
67363;SDS011;54250;45.572;38.086;2022-11-12T17:31:45;27.67;;;11.00;;
67363;SDS011;54250;45.572;38.086;2022-11-12T17:34:31;22.85;;;11.30;;
67363;SDS011;54250;45.572;38.086;2022-11-12T17:37:16;23.90;;;10.30;;
67363;SDS011;54250;45.572;38.086;2022-11-12T17:40:01;23.27;;;13.32;;
67363;SDS011;54250;45.572;38.086;2022-11-12T17:42:46;29.55;;;13.30;;
67363;SDS011;54250;45.572;38.086;2022-11-12T17:45:30;41.50;;;11.55;;
67363;SDS011;54250;45.572;38.086;2022-11-12T17:48:15;21.95;;;8.30;;
67363;SDS011;54250;45.572;38.086;2022-11-12T17:53:54;15.38;;;7.43;;
67363;SDS011;54250;45.572;38.086;2022-11-12T17:56:39;18.23;;;6.63;;
67363;SDS011;54250;45.572;38.086;2022-11-12T17:59:23;20.48;;;7.40;;
67363;SDS011;54250;45.572;38.086;2022-11-12T18:02:10;16.55;;;6.35;;
67363;SDS011;54250;45.572;38.086;2022-11-12T18:04:55;16.60;;;7.43;;
67363;SDS011;54250;45.572;38.086;2022-11-12T18:07:40;27.73;;;7.13;;
67363;SDS011;54250;45.572;38.086;2022-11-12T18:10:24;21.70;;;7.40;;
67363;SDS011;54250;45.572;38.086;2022-11-12T18:13:09;15.15;;;5.82;;
67363;SDS011;54250;45.572;38.086;2022-11-12T18:15:54;13.32;;;6.72;;
67363;SDS011;54250;45.572;38.086;2022-11-12T18:18:38;11.98;;;5.93;;
67363;SDS011;54250;45.572;38.086;2022-11-12T18:21:23;19.77;;;7.70;;
67363;SDS011;54250;45.572;38.086;2022-11-12T18:24:15;9.88;;;6.00;;
67363;SDS011;54250;45.572;38.086;2022-11-12T18:27:00;14.82;;;5.47;;
67363;SDS011;54250;45.572;38.086;2022-11-12T18:29:44;10.15;;;5.03;;
67363;SDS011;54250;45.572;38.086;2022-11-12T18:32:29;17.63;;;6.25;;
67363;SDS011;54250;45.572;38.086;2022-11-12T18:35:14;12.27;;;5.45;;